sensor_id;sensor_type;location;lat;lon;timestamp;pressure;altitude;pressure_sealevel;temperature;humidity
76590;BME280;65471;55.908;37.880;2023-05-28T00:00:02;99735.06;;;11.80;64.12
76590;BME280;65471;55.908;37.880;2023-05-28T00:02:36;99726.59;;;11.76;64.08
76590;BME280;65471;55.908;37.880;2023-05-28T00:05:04;99721.06;;;11.71;63.66
76590;BME280;65471;55.908;37.880;2023-05-28T00:07:31;99724.75;;;11.65;63.76
76590;BME280;65471;55.908;37.880;2023-05-28T00:09:58;99718.16;;;11.61;64.40
76590;BME280;65471;55.908;37.880;2023-05-28T00:12:25;99719.38;;;11.53;64.11
76590;BME280;65471;55.908;37.880;2023-05-28T00:14:52;99724.69;;;11.48;64.44
76590;BME280;65471;55.908;37.880;2023-05-28T00:17:20;99721.84;;;11.43;65.15
76590;BME280;65471;55.908;37.880;2023-05-28T00:19:48;99728.22;;;11.36;64.77
76590;BME280;65471;55.908;37.880;2023-05-28T00:22:15;99726.56;;;11.35;65.10
76590;BME280;65471;55.908;37.880;2023-05-28T00:24:42;99720.81;;;11.32;65.23
76590;BME280;65471;55.908;37.880;2023-05-28T00:27:09;99719.03;;;11.26;65.37
76590;BME280;65471;55.908;37.880;2023-05-28T00:29:36;99725.78;;;11.23;65.20
76590;BME280;65471;55.908;37.880;2023-05-28T00:32:03;99717.88;;;11.21;65.69
76590;BME280;65471;55.908;37.880;2023-05-28T00:34:30;99715.41;;;11.20;66.02
76590;BME280;65471;55.908;37.880;2023-05-28T00:36:57;99716.50;;;11.19;65.85
76590;BME280;65471;55.908;37.880;2023-05-28T00:39:24;99707.78;;;11.17;65.67
76590;BME280;65471;55.908;37.880;2023-05-28T00:42:03;99718.84;;;11.15;65.67
76590;BME280;65471;55.908;37.880;2023-05-28T00:44:31;99712.59;;;11.15;65.69
76590;BME280;65471;55.908;37.880;2023-05-28T00:46:59;99713.19;;;11.17;65.97
76590;BME280;65471;55.908;37.880;2023-05-28T00:49:27;99717.78;;;11.16;65.52
76590;BME280;65471;55.908;37.880;2023-05-28T00:51:55;99714.22;;;11.16;65.84
76590;BME280;65471;55.908;37.880;2023-05-28T00:54:23;99702.25;;;11.12;65.98
76590;BME280;65471;55.908;37.880;2023-05-28T00:56:52;99702.84;;;11.14;66.06
76590;BME280;65471;55.908;37.880;2023-05-28T00:59:20;99723.66;;;11.13;66.08
76590;BME280;65471;55.908;37.880;2023-05-28T01:01:48;99716.59;;;11.12;66.15
76590;BME280;65471;55.908;37.880;2023-05-28T01:04:15;99725.28;;;11.14;66.40
76590;BME280;65471;55.908;37.880;2023-05-28T01:06:43;99714.13;;;11.11;66.37
76590;BME280;65471;55.908;37.880;2023-05-28T01:09:11;99723.31;;;11.10;66.62
76590;BME280;65471;55.908;37.880;2023-05-28T01:11:40;99715.78;;;11.12;66.53
76590;BME280;65471;55.908;37.880;2023-05-28T01:14:09;99710.38;;;11.12;66.80
76590;BME280;65471;55.908;37.880;2023-05-28T01:16:37;99720.28;;;11.06;66.32
76590;BME280;65471;55.908;37.880;2023-05-28T01:19:05;99714.00;;;11.05;66.52
76590;BME280;65471;55.908;37.880;2023-05-28T01:21:40;99719.66;;;11.04;66.66
76590;BME280;65471;55.908;37.880;2023-05-28T01:24:09;99714.38;;;10.97;66.52
76590;BME280;65471;55.908;37.880;2023-05-28T01:26:37;99721.34;;;10.93;66.28
76590;BME280;65471;55.908;37.880;2023-05-28T01:29:14;99724.63;;;10.95;66.69
76590;BME280;65471;55.908;37.880;2023-05-28T01:31:42;99729.78;;;10.97;66.83
76590;BME280;65471;55.908;37.880;2023-05-28T01:34:10;99729.53;;;10.98;66.79
76590;BME280;65471;55.908;37.880;2023-05-28T01:36:52;99731.06;;;10.94;67.09
76590;BME280;65471;55.908;37.880;2023-05-28T01:39:22;99727.91;;;10.85;67.35
76590;BME280;65471;55.908;37.880;2023-05-28T01:41:51;99732.72;;;10.83;67.37
76590;BME280;65471;55.908;37.880;2023-05-28T01:44:19;99726.84;;;10.75;67.35
76590;BME280;65471;55.908;37.880;2023-05-28T01:46:46;99737.66;;;10.75;67.68
76590;BME280;65471;55.908;37.880;2023-05-28T01:49:14;99739.16;;;10.59;67.64
76590;BME280;65471;55.908;37.880;2023-05-28T01:51:41;99742.00;;;10.64;67.90
76590;BME280;65471;55.908;37.880;2023-05-28T01:54:08;99739.88;;;10.66;67.79
76590;BME280;65471;55.908;37.880;2023-05-28T01:56:35;99731.56;;;10.67;68.51
76590;BME280;65471;55.908;37.880;2023-05-28T01:59:02;99732.13;;;10.69;68.36
76590;BME280;65471;55.908;37.880;2023-05-28T02:01:33;99731.56;;;10.67;68.44
76590;BME280;65471;55.908;37.880;2023-05-28T02:04:02;99724.72;;;10.65;67.96
76590;BME280;65471;55.908;37.880;2023-05-28T02:06:31;99731.41;;;10.62;68.53
76590;BME280;65471;55.908;37.880;2023-05-28T02:08:58;99736.59;;;10.64;68.38
76590;BME280;65471;55.908;37.880;2023-05-28T02:11:25;99740.72;;;10.66;68.33
76590;BME280;65471;55.908;37.880;2023-05-28T02:13:53;99733.66;;;10.65;68.33
76590;BME280;65471;55.908;37.880;2023-05-28T02:16:22;99730.94;;;10.65;68.38
76590;BME280;65471;55.908;37.880;2023-05-28T02:18:51;99742.81;;;10.64;68.75
76590;BME280;65471;55.908;37.880;2023-05-28T02:21:19;99739.06;;;10.65;69.02
76590;BME280;65471;55.908;37.880;2023-05-28T02:23:47;99738.47;;;10.63;69.00
76590;BME280;65471;55.908;37.880;2023-05-28T02:26:15;99740.81;;;10.60;68.85
76590;BME280;65471;55.908;37.880;2023-05-28T02:28:42;99747.50;;;10.57;69.04
76590;BME280;65471;55.908;37.880;2023-05-28T02:31:10;99731.75;;;10.54;69.12
76590;BME280;65471;55.908;37.880;2023-05-28T02:33:41;99742.44;;;10.49;69.03
76590;BME280;65471;55.908;37.880;2023-05-28T02:36:09;99743.81;;;10.40;68.91
76590;BME280;65471;55.908;37.880;2023-05-28T02:38:41;99747.44;;;10.33;69.05
76590;BME280;65471;55.908;37.880;2023-05-28T02:41:09;99755.78;;;10.32;69.29
76590;BME280;65471;55.908;37.880;2023-05-28T02:43:36;99760.34;;;10.31;69.71
76590;BME280;65471;55.908;37.880;2023-05-28T02:46:03;99757.50;;;10.26;69.60
76590;BME280;65471;55.908;37.880;2023-05-28T02:48:30;99756.44;;;10.27;69.80
76590;BME280;65471;55.908;37.880;2023-05-28T02:50:57;99749.75;;;10.30;69.70
76590;BME280;65471;55.908;37.880;2023-05-28T02:53:29;99757.63;;;10.31;69.93
76590;BME280;65471;55.908;37.880;2023-05-28T02:55:56;99761.41;;;10.30;69.77
76590;BME280;65471;55.908;37.880;2023-05-28T02:58:23;99772.06;;;10.25;70.11
76590;BME280;65471;55.908;37.880;2023-05-28T03:00:51;99756.66;;;10.26;70.23
76590;BME280;65471;55.908;37.880;2023-05-28T03:03:18;99760.81;;;10.28;70.43
76590;BME280;65471;55.908;37.880;2023-05-28T03:05:45;99756.31;;;10.22;70.46
76590;BME280;65471;55.908;37.880;2023-05-28T03:08:12;99756.09;;;10.24;70.66
76590;BME280;65471;55.908;37.880;2023-05-28T03:10:39;99762.06;;;10.26;70.77
76590;BME280;65471;55.908;37.880;2023-05-28T03:13:06;99754.34;;;10.29;70.53
76590;BME280;65471;55.908;37.880;2023-05-28T03:15:33;99755.34;;;10.35;70.86
76590;BME280;65471;55.908;37.880;2023-05-28T03:18:00;99753.59;;;10.41;70.88
76590;BME280;65471;55.908;37.880;2023-05-28T03:20:27;99747.00;;;10.48;70.96
76590;BME280;65471;55.908;37.880;2023-05-28T03:22:58;99743.75;;;10.58;70.81
76590;BME280;65471;55.908;37.880;2023-05-28T03:25:25;99736.00;;;10.62;70.70
76590;BME280;65471;55.908;37.880;2023-05-28T03:27:55;99744.47;;;10.65;70.88
76590;BME280;65471;55.908;37.880;2023-05-28T03:30:22;99750.34;;;10.62;70.81
76590;BME280;65471;55.908;37.880;2023-05-28T03:32:49;99749.53;;;10.62;70.56
76590;BME280;65471;55.908;37.880;2023-05-28T03:35:16;99753.53;;;10.71;70.40
76590;BME280;65471;55.908;37.880;2023-05-28T03:37:43;99759.66;;;10.78;70.42
76590;BME280;65471;55.908;37.880;2023-05-28T03:40:11;99756.22;;;10.83;70.53
76590;BME280;65471;55.908;37.880;2023-05-28T03:42:38;99754.22;;;10.90;70.09
76590;BME280;65471;55.908;37.880;2023-05-28T03:45:06;99757.06;;;10.95;70.34
76590;BME280;65471;55.908;37.880;2023-05-28T03:47:33;99756.13;;;11.01;70.21
76590;BME280;65471;55.908;37.880;2023-05-28T03:50:01;99756.25;;;11.07;70.09
76590;BME280;65471;55.908;37.880;2023-05-28T03:52:31;99753.78;;;11.05;70.37
76590;BME280;65471;55.908;37.880;2023-05-28T03:54:58;99762.25;;;11.09;70.28
76590;BME280;65471;55.908;37.880;2023-05-28T03:57:25;99767.44;;;11.10;70.65
76590;BME280;65471;55.908;37.880;2023-05-28T03:59:52;99772.63;;;11.12;70.49
76590;BME280;65471;55.908;37.880;2023-05-28T04:02:22;99771.31;;;11.14;70.82
76590;BME280;65471;55.908;37.880;2023-05-28T04:04:50;99767.53;;;11.15;70.95
76590;BME280;65471;55.908;37.880;2023-05-28T04:07:17;99774.00;;;11.14;70.81
76590;BME280;65471;55.908;37.880;2023-05-28T04:09:44;99769.44;;;11.15;70.90
76590;BME280;65471;55.908;37.880;2023-05-28T04:12:11;99779.66;;;11.13;70.62
76590;BME280;65471;55.908;37.880;2023-05-28T04:14:39;99772.50;;;11.07;70.97
76590;BME280;65471;55.908;37.880;2023-05-28T04:17:08;99780.03;;;11.04;71.15
76590;BME280;65471;55.908;37.880;2023-05-28T04:19:37;99771.78;;;10.99;72.12
76590;BME280;65471;55.908;37.880;2023-05-28T04:22:05;99769.88;;;10.88;73.08
76590;BME280;65471;55.908;37.880;2023-05-28T04:24:32;99773.78;;;10.80;73.35
76590;BME280;65471;55.908;37.880;2023-05-28T04:26:59;99776.34;;;10.75;74.09
76590;BME280;65471;55.908;37.880;2023-05-28T04:29:26;99774.69;;;10.74;74.80
76590;BME280;65471;55.908;37.880;2023-05-28T04:31:56;99777.84;;;10.71;75.51
76590;BME280;65471;55.908;37.880;2023-05-28T04:34:24;99769.13;;;10.57;76.10
76590;BME280;65471;55.908;37.880;2023-05-28T04:36:51;99776.66;;;10.55;76.57
76590;BME280;65471;55.908;37.880;2023-05-28T04:39:19;99779.38;;;10.55;77.08
76590;BME280;65471;55.908;37.880;2023-05-28T04:41:49;99773.50;;;10.58;77.19
76590;BME280;65471;55.908;37.880;2023-05-28T04:44:16;99776.66;;;10.55;77.53
76590;BME280;65471;55.908;37.880;2023-05-28T04:46:42;99779.72;;;10.59;77.47
76590;BME280;65471;55.908;37.880;2023-05-28T04:49:12;99778.09;;;10.58;77.66
76590;BME280;65471;55.908;37.880;2023-05-28T04:51:39;99778.31;;;10.56;78.00
76590;BME280;65471;55.908;37.880;2023-05-28T04:54:07;99785.59;;;10.56;77.89
76590;BME280;65471;55.908;37.880;2023-05-28T04:56:35;99782.41;;;10.59;78.05
76590;BME280;65471;55.908;37.880;2023-05-28T04:59:02;99784.06;;;10.60;78.54
76590;BME280;65471;55.908;37.880;2023-05-28T05:01:31;99787.59;;;10.60;78.39
76590;BME280;65471;55.908;37.880;2023-05-28T05:04:03;99789.47;;;10.60;78.03
76590;BME280;65471;55.908;37.880;2023-05-28T05:06:30;99783.38;;;10.64;78.35
76590;BME280;65471;55.908;37.880;2023-05-28T05:08:57;99782.94;;;10.67;78.21
76590;BME280;65471;55.908;37.880;2023-05-28T05:11:24;99783.75;;;10.68;77.93
76590;BME280;65471;55.908;37.880;2023-05-28T05:13:51;99782.56;;;10.76;77.61
76590;BME280;65471;55.908;37.880;2023-05-28T05:16:19;99786.22;;;10.81;77.55
76590;BME280;65471;55.908;37.880;2023-05-28T05:18:46;99781.75;;;10.75;77.92
76590;BME280;65471;55.908;37.880;2023-05-28T05:21:14;99786.22;;;10.81;77.27
76590;BME280;65471;55.908;37.880;2023-05-28T05:23:41;99784.47;;;10.87;76.87
76590;BME280;65471;55.908;37.880;2023-05-28T05:26:08;99784.94;;;10.96;76.67
76590;BME280;65471;55.908;37.880;2023-05-28T05:28:39;99782.84;;;10.98;76.70
76590;BME280;65471;55.908;37.880;2023-05-28T05:31:08;99796.84;;;11.07;76.40
76590;BME280;65471;55.908;37.880;2023-05-28T05:33:42;99796.16;;;11.23;76.28
76590;BME280;65471;55.908;37.880;2023-05-28T05:36:09;99804.34;;;11.40;76.17
76590;BME280;65471;55.908;37.880;2023-05-28T05:38:37;99791.16;;;11.55;75.69
76590;BME280;65471;55.908;37.880;2023-05-28T05:41:04;99794.56;;;11.63;75.70
76590;BME280;65471;55.908;37.880;2023-05-28T05:43:31;99794.00;;;11.61;75.66
76590;BME280;65471;55.908;37.880;2023-05-28T05:45:58;99816.38;;;11.56;74.98
76590;BME280;65471;55.908;37.880;2023-05-28T05:48:26;99810.84;;;11.51;75.31
76590;BME280;65471;55.908;37.880;2023-05-28T05:50:54;99817.31;;;11.38;75.31
76590;BME280;65471;55.908;37.880;2023-05-28T05:53:22;99815.91;;;11.35;75.24
76590;BME280;65471;55.908;37.880;2023-05-28T05:55:50;99820.13;;;11.31;75.17
76590;BME280;65471;55.908;37.880;2023-05-28T05:58:17;99824.97;;;11.29;75.27
76590;BME280;65471;55.908;37.880;2023-05-28T06:00:44;99826.63;;;11.30;75.16
76590;BME280;65471;55.908;37.880;2023-05-28T06:03:11;99829.91;;;11.32;75.68
76590;BME280;65471;55.908;37.880;2023-05-28T06:05:38;99823.31;;;11.28;75.19
76590;BME280;65471;55.908;37.880;2023-05-28T06:08:05;99826.03;;;11.28;75.26
76590;BME280;65471;55.908;37.880;2023-05-28T06:10:32;99828.72;;;11.28;75.34
76590;BME280;65471;55.908;37.880;2023-05-28T06:12:59;99831.19;;;11.30;75.62
76590;BME280;65471;55.908;37.880;2023-05-28T06:15:28;99824.16;;;11.29;75.62
76590;BME280;65471;55.908;37.880;2023-05-28T06:17:55;99836.75;;;11.35;75.48
76590;BME280;65471;55.908;37.880;2023-05-28T06:20:22;99835.69;;;11.36;75.55
76590;BME280;65471;55.908;37.880;2023-05-28T06:22:50;99835.31;;;11.32;75.39
76590;BME280;65471;55.908;37.880;2023-05-28T06:25:17;99845.09;;;11.33;75.60
76590;BME280;65471;55.908;37.880;2023-05-28T06:27:44;99841.78;;;11.31;75.07
76590;BME280;65471;55.908;37.880;2023-05-28T06:30:12;99845.34;;;11.32;74.87
76590;BME280;65471;55.908;37.880;2023-05-28T06:32:38;99849.47;;;11.34;75.27
76590;BME280;65471;55.908;37.880;2023-05-28T06:35:06;99849.69;;;11.33;75.77
76590;BME280;65471;55.908;37.880;2023-05-28T06:37:34;99848.28;;;11.30;75.77
76590;BME280;65471;55.908;37.880;2023-05-28T06:40:04;99856.75;;;11.22;76.13
76590;BME280;65471;55.908;37.880;2023-05-28T06:42:33;99863.19;;;11.09;76.67
76590;BME280;65471;55.908;37.880;2023-05-28T06:45:00;99865.88;;;10.97;77.18
76590;BME280;65471;55.908;37.880;2023-05-28T06:47:28;99864.09;;;10.91;77.35
76590;BME280;65471;55.908;37.880;2023-05-28T06:49:55;99861.88;;;10.88;78.04
76590;BME280;65471;55.908;37.880;2023-05-28T06:52:22;99866.09;;;10.84;78.07
76590;BME280;65471;55.908;37.880;2023-05-28T06:54:50;99862.41;;;10.78;78.50
76590;BME280;65471;55.908;37.880;2023-05-28T06:57:17;99867.13;;;10.83;78.75
76590;BME280;65471;55.908;37.880;2023-05-28T06:59:44;99874.06;;;10.79;79.28
76590;BME280;65471;55.908;37.880;2023-05-28T07:02:11;99876.19;;;10.77;79.11
76590;BME280;65471;55.908;37.880;2023-05-28T07:04:38;99873.94;;;10.74;79.85
76590;BME280;65471;55.908;37.880;2023-05-28T07:07:06;99876.63;;;10.74;79.88
76590;BME280;65471;55.908;37.880;2023-05-28T07:09:33;99866.28;;;10.70;80.14
76590;BME280;65471;55.908;37.880;2023-05-28T07:12:00;99873.47;;;10.77;80.22
76590;BME280;65471;55.908;37.880;2023-05-28T07:14:28;99878.66;;;10.78;80.41
76590;BME280;65471;55.908;37.880;2023-05-28T07:16:55;99867.59;;;10.80;80.72
76590;BME280;65471;55.908;37.880;2023-05-28T07:19:22;99868.22;;;10.82;80.46
76590;BME280;65471;55.908;37.880;2023-05-28T07:21:49;99871.97;;;10.81;80.71
76590;BME280;65471;55.908;37.880;2023-05-28T07:24:16;99875.72;;;10.80;80.95
76590;BME280;65471;55.908;37.880;2023-05-28T07:26:43;99873.47;;;10.77;81.18
76590;BME280;65471;55.908;37.880;2023-05-28T07:29:11;99862.88;;;10.75;81.38
76590;BME280;65471;55.908;37.880;2023-05-28T07:31:41;99864.31;;;10.78;81.42
76590;BME280;65471;55.908;37.880;2023-05-28T07:34:07;99868.06;;;10.77;81.34
76590;BME280;65471;55.908;37.880;2023-05-28T07:36:34;99866.78;;;10.79;81.51
76590;BME280;65471;55.908;37.880;2023-05-28T07:39:04;99868.66;;;10.79;81.39
76590;BME280;65471;55.908;37.880;2023-05-28T07:41:31;99865.50;;;10.82;81.46
76590;BME280;65471;55.908;37.880;2023-05-28T07:43:58;99865.28;;;10.83;81.49
76590;BME280;65471;55.908;37.880;2023-05-28T07:46:25;99869.16;;;10.87;81.73
76590;BME280;65471;55.908;37.880;2023-05-28T07:48:52;99866.00;;;10.91;81.97
76590;BME280;65471;55.908;37.880;2023-05-28T07:51:19;99869.50;;;10.91;82.15
76590;BME280;65471;55.908;37.880;2023-05-28T07:53:46;99864.81;;;10.98;81.87
76590;BME280;65471;55.908;37.880;2023-05-28T07:56:14;99867.06;;;11.01;81.59
76590;BME280;65471;55.908;37.880;2023-05-28T07:58:44;99868.72;;;11.02;81.55
76590;BME280;65471;55.908;37.880;2023-05-28T08:01:12;99862.97;;;10.99;81.92
76590;BME280;65471;55.908;37.880;2023-05-28T08:03:39;99866.00;;;11.02;81.83
76590;BME280;65471;55.908;37.880;2023-05-28T08:06:06;99871.66;;;11.01;82.13
76590;BME280;65471;55.908;37.880;2023-05-28T08:08:33;99876.34;;;11.05;82.00
76590;BME280;65471;55.908;37.880;2023-05-28T08:11:00;99869.09;;;11.06;81.76
76590;BME280;65471;55.908;37.880;2023-05-28T08:13:27;99875.69;;;11.10;81.87
76590;BME280;65471;55.908;37.880;2023-05-28T08:15:54;99874.38;;;11.13;81.87
76590;BME280;65471;55.908;37.880;2023-05-28T08:18:21;99868.47;;;11.16;82.13
76590;BME280;65471;55.908;37.880;2023-05-28T08:20:48;99873.47;;;11.19;82.00
76590;BME280;65471;55.908;37.880;2023-05-28T08:23:15;99878.03;;;11.18;82.09
76590;BME280;65471;55.908;37.880;2023-05-28T08:25:42;99873.22;;;11.20;82.02
76590;BME280;65471;55.908;37.880;2023-05-28T08:28:09;99867.56;;;11.22;82.38
76590;BME280;65471;55.908;37.880;2023-05-28T08:30:36;99874.16;;;11.26;82.01
76590;BME280;65471;55.908;37.880;2023-05-28T08:33:03;99866.16;;;11.31;82.30
76590;BME280;65471;55.908;37.880;2023-05-28T08:35:30;99865.91;;;11.33;82.22
76590;BME280;65471;55.908;37.880;2023-05-28T08:37:57;99858.16;;;11.36;81.74
76590;BME280;65471;55.908;37.880;2023-05-28T08:40:25;99861.59;;;11.44;81.89
76590;BME280;65471;55.908;37.880;2023-05-28T08:42:52;99863.81;;;11.47;81.78
76590;BME280;65471;55.908;37.880;2023-05-28T08:45:19;99862.66;;;11.54;82.23
76590;BME280;65471;55.908;37.880;2023-05-28T08:47:47;99869.34;;;11.64;82.53
76590;BME280;65471;55.908;37.880;2023-05-28T08:50:15;99872.19;;;11.69;82.55
76590;BME280;65471;55.908;37.880;2023-05-28T08:52:44;99869.56;;;11.74;82.24
76590;BME280;65471;55.908;37.880;2023-05-28T08:55:11;99865.69;;;11.82;82.45
76590;BME280;65471;55.908;37.880;2023-05-28T08:57:38;99860.03;;;11.95;82.32
76590;BME280;65471;55.908;37.880;2023-05-28T09:00:06;99856.00;;;12.09;82.12
76590;BME280;65471;55.908;37.880;2023-05-28T09:02:34;99856.66;;;12.17;81.60
76590;BME280;65471;55.908;37.880;2023-05-28T09:05:01;99861.06;;;12.47;81.53
76590;BME280;65471;55.908;37.880;2023-05-28T09:07:31;99848.38;;;12.81;80.93
76590;BME280;65471;55.908;37.880;2023-05-28T09:09:58;99849.66;;;13.07;80.15
76590;BME280;65471;55.908;37.880;2023-05-28T09:12:26;99839.44;;;13.32;79.79
76590;BME280;65471;55.908;37.880;2023-05-28T09:14:53;99842.81;;;13.56;78.64
76590;BME280;65471;55.908;37.880;2023-05-28T09:17:33;99844.56;;;13.84;77.76
76590;BME280;65471;55.908;37.880;2023-05-28T09:20:08;99840.84;;;14.12;77.09
76590;BME280;65471;55.908;37.880;2023-05-28T09:22:37;99841.06;;;14.33;76.23
76590;BME280;65471;55.908;37.880;2023-05-28T09:25:07;99836.56;;;14.44;75.79
76590;BME280;65471;55.908;37.880;2023-05-28T09:27:35;99839.41;;;14.54;74.87
76590;BME280;65471;55.908;37.880;2023-05-28T09:30:08;99835.81;;;14.48;73.75
76590;BME280;65471;55.908;37.880;2023-05-28T09:32:35;99833.28;;;14.42;73.49
76590;BME280;65471;55.908;37.880;2023-05-28T09:35:06;99840.91;;;14.45;73.43
76590;BME280;65471;55.908;37.880;2023-05-28T09:37:34;99833.59;;;14.45;73.88
76590;BME280;65471;55.908;37.880;2023-05-28T09:40:04;99845.75;;;14.38;74.15
76590;BME280;65471;55.908;37.880;2023-05-28T09:42:38;99838.09;;;14.35;74.38
76590;BME280;65471;55.908;37.880;2023-05-28T09:45:09;99839.50;;;14.37;74.29
76590;BME280;65471;55.908;37.880;2023-05-28T09:47:44;99839.50;;;14.37;73.47
76590;BME280;65471;55.908;37.880;2023-05-28T09:50:11;99837.28;;;14.34;73.51
76590;BME280;65471;55.908;37.880;2023-05-28T09:52:39;99828.88;;;14.36;73.63
76590;BME280;65471;55.908;37.880;2023-05-28T09:55:12;99831.88;;;14.39;73.51
76590;BME280;65471;55.908;37.880;2023-05-28T09:57:55;99836.09;;;14.52;72.25
76590;BME280;65471;55.908;37.880;2023-05-28T10:00:26;99835.22;;;14.69;71.79
76590;BME280;65471;55.908;37.880;2023-05-28T10:03:00;99826.94;;;14.86;70.99
76590;BME280;65471;55.908;37.880;2023-05-28T10:05:33;99828.56;;;15.19;70.43
76590;BME280;65471;55.908;37.880;2023-05-28T10:08:00;99824.66;;;15.42;69.42
76590;BME280;65471;55.908;37.880;2023-05-28T10:10:30;99821.13;;;15.47;69.01
76590;BME280;65471;55.908;37.880;2023-05-28T10:12:57;99832.81;;;15.42;67.99
76590;BME280;65471;55.908;37.880;2023-05-28T10:15:25;99826.53;;;15.42;67.26
76590;BME280;65471;55.908;37.880;2023-05-28T10:17:52;99808.34;;;15.52;66.31
76590;BME280;65471;55.908;37.880;2023-05-28T10:20:20;99815.47;;;15.59;64.83
76590;BME280;65471;55.908;37.880;2023-05-28T10:22:48;99816.56;;;15.58;63.66
76590;BME280;65471;55.908;37.880;2023-05-28T10:25:15;99819.34;;;15.68;63.17
76590;BME280;65471;55.908;37.880;2023-05-28T10:27:46;99809.66;;;15.93;61.21
76590;BME280;65471;55.908;37.880;2023-05-28T10:30:35;99799.88;;;15.97;61.13
76590;BME280;65471;55.908;37.880;2023-05-28T10:33:08;99811.31;;;15.99;61.22
76590;BME280;65471;55.908;37.880;2023-05-28T10:35:35;99797.44;;;16.05;61.07
76590;BME280;65471;55.908;37.880;2023-05-28T10:38:16;99799.63;;;16.09;60.84
76590;BME280;65471;55.908;37.880;2023-05-28T10:40:43;99803.81;;;16.32;61.26
76590;BME280;65471;55.908;37.880;2023-05-28T10:49:07;99795.91;;;16.51;61.17
76590;BME280;65471;55.908;37.880;2023-05-28T10:51:45;99795.41;;;16.59;60.82
76590;BME280;65471;55.908;37.880;2023-05-28T10:54:21;99792.94;;;16.73;59.89
76590;BME280;65471;55.908;37.880;2023-05-28T10:57:10;99791.31;;;16.87;59.30
76590;BME280;65471;55.908;37.880;2023-05-28T10:59:52;99789.97;;;16.95;58.52
76590;BME280;65471;55.908;37.880;2023-05-28T11:04:53;99810.97;;;16.74;59.20
76590;BME280;65471;55.908;37.880;2023-05-28T11:07:32;99804.44;;;16.80;58.39
76590;BME280;65471;55.908;37.880;2023-05-28T11:10:00;99806.31;;;16.69;59.03
76590;BME280;65471;55.908;37.880;2023-05-28T11:12:36;99809.84;;;16.54;59.62
76590;BME280;65471;55.908;37.880;2023-05-28T11:15:05;99804.72;;;16.94;59.36
76590;BME280;65471;55.908;37.880;2023-05-28T11:17:43;99801.84;;;17.76;58.09
76590;BME280;65471;55.908;37.880;2023-05-28T11:20:26;99810.31;;;17.75;56.69
76590;BME280;65471;55.908;37.880;2023-05-28T11:22:54;99801.53;;;17.93;56.50
76590;BME280;65471;55.908;37.880;2023-05-28T11:25:22;99807.44;;;18.21;55.97
76590;BME280;65471;55.908;37.880;2023-05-28T11:27:53;99787.88;;;18.78;53.84
76590;BME280;65471;55.908;37.880;2023-05-28T11:30:20;99782.06;;;20.35;50.87
76590;BME280;65471;55.908;37.880;2023-05-28T11:32:48;99788.41;;;22.46;46.91
76590;BME280;65471;55.908;37.880;2023-05-28T11:35:16;99782.66;;;24.04;44.08
76590;BME280;65471;55.908;37.880;2023-05-28T11:37:44;99787.38;;;23.64;43.38
76590;BME280;65471;55.908;37.880;2023-05-28T11:40:13;99777.66;;;23.66;42.96
76590;BME280;65471;55.908;37.880;2023-05-28T11:42:42;99781.59;;;23.83;41.24
76590;BME280;65471;55.908;37.880;2023-05-28T11:45:11;99778.84;;;25.40;38.53
76590;BME280;65471;55.908;37.880;2023-05-28T11:47:39;99783.41;;;25.27;37.31
76590;BME280;65471;55.908;37.880;2023-05-28T11:52:34;99784.38;;;23.11;41.15
76590;BME280;65471;55.908;37.880;2023-05-28T11:55:03;99776.16;;;22.52;41.25
76590;BME280;65471;55.908;37.880;2023-05-28T11:57:33;99778.06;;;21.31;43.84
76590;BME280;65471;55.908;37.880;2023-05-28T12:00:07;99796.19;;;20.28;45.54
76590;BME280;65471;55.908;37.880;2023-05-28T12:02:46;99800.88;;;19.55;47.15
76590;BME280;65471;55.908;37.880;2023-05-28T12:05:15;99811.34;;;19.53;47.03
76590;BME280;65471;55.908;37.880;2023-05-28T12:07:49;99820.59;;;19.33;46.16
76590;BME280;65471;55.908;37.880;2023-05-28T12:10:20;99828.25;;;19.36;45.64
76590;BME280;65471;55.908;37.880;2023-05-28T12:12:51;99827.97;;;19.08;44.67
76590;BME280;65471;55.908;37.880;2023-05-28T12:15:24;99837.44;;;18.82;45.82
76590;BME280;65471;55.908;37.880;2023-05-28T12:17:53;99840.03;;;18.62;45.88
76590;BME280;65471;55.908;37.880;2023-05-28T12:22:59;99822.84;;;18.02;48.17
76590;BME280;65471;55.908;37.880;2023-05-28T12:25:27;99836.25;;;17.83;48.01
76590;BME280;65471;55.908;37.880;2023-05-28T12:27:53;99827.81;;;17.79;48.29
76590;BME280;65471;55.908;37.880;2023-05-28T12:30:21;99834.41;;;17.73;49.16
76590;BME280;65471;55.908;37.880;2023-05-28T12:32:47;99827.59;;;17.55;49.01
76590;BME280;65471;55.908;37.880;2023-05-28T12:35:14;99830.38;;;17.45;49.31
76590;BME280;65471;55.908;37.880;2023-05-28T12:37:41;99830.63;;;17.33;49.17
76590;BME280;65471;55.908;37.880;2023-05-28T12:40:09;99836.94;;;17.18;49.99
76590;BME280;65471;55.908;37.880;2023-05-28T12:42:38;99826.00;;;16.97;50.13
76590;BME280;65471;55.908;37.880;2023-05-28T12:45:05;99847.56;;;16.83;50.05
76590;BME280;65471;55.908;37.880;2023-05-28T12:47:32;99841.78;;;16.64;50.59
76590;BME280;65471;55.908;37.880;2023-05-28T12:49:59;99849.69;;;16.45;51.46
76590;BME280;65471;55.908;37.880;2023-05-28T12:52:26;99846.31;;;16.22;49.93
76590;BME280;65471;55.908;37.880;2023-05-28T12:54:53;99842.50;;;16.13;50.07
76590;BME280;65471;55.908;37.880;2023-05-28T12:57:39;99843.53;;;16.07;50.88
76590;BME280;65471;55.908;37.880;2023-05-28T13:00:08;99832.59;;;15.97;51.38
76590;BME280;65471;55.908;37.880;2023-05-28T13:02:38;99834.47;;;15.91;51.72
76590;BME280;65471;55.908;37.880;2023-05-28T13:05:06;99835.00;;;15.93;51.77
76590;BME280;65471;55.908;37.880;2023-05-28T13:07:34;99824.66;;;15.85;51.55
76590;BME280;65471;55.908;37.880;2023-05-28T13:10:01;99825.91;;;15.72;52.37